createdAt,value
2017-09-18T00:00:49.154Z,11.20
2017-09-18T00:03:16.070Z,11.00
2017-09-18T00:05:42.959Z,10.90
2017-09-18T00:08:09.858Z,11.00
2017-09-18T00:10:36.801Z,11.10
2017-09-18T00:13:03.687Z,11.00
2017-09-18T00:15:30.602Z,10.80
2017-09-18T00:17:57.519Z,10.80
2017-09-18T00:20:24.398Z,10.70
2017-09-18T00:22:51.738Z,10.60
2017-09-18T00:25:19.063Z,10.70
2017-09-18T00:27:45.970Z,10.70
2017-09-18T00:30:12.931Z,10.60
2017-09-18T00:32:39.902Z,10.60
2017-09-18T00:35:06.774Z,10.60
2017-09-18T00:37:33.663Z,10.60
2017-09-18T00:40:00.569Z,10.50
2017-09-18T00:42:27.455Z,10.50
2017-09-18T00:44:54.335Z,10.50
2017-09-18T00:47:21.258Z,10.50
2017-09-18T00:49:48.143Z,10.40
2017-09-18T00:52:15.025Z,10.40
2017-09-18T00:54:41.945Z,10.30
2017-09-18T00:57:08.829Z,10.40
2017-09-18T00:59:35.741Z,10.30
2017-09-18T01:02:02.698Z,10.40
2017-09-18T01:04:29.970Z,10.30
2017-09-18T01:06:56.850Z,10.30
2017-09-18T01:09:23.770Z,10.30
2017-09-18T01:11:50.647Z,10.30
2017-09-18T01:14:17.533Z,10.30
2017-09-18T01:16:44.872Z,10.30
2017-09-18T01:19:11.816Z,10.30
2017-09-18T01:21:38.694Z,10.30
2017-09-18T01:24:05.613Z,10.40
2017-09-18T01:26:32.553Z,10.40
2017-09-18T01:28:59.497Z,10.30
2017-09-18T01:31:26.432Z,10.40
2017-09-18T01:33:53.342Z,10.30
2017-09-18T01:36:20.220Z,10.30
2017-09-18T01:38:47.178Z,10.40
2017-09-18T01:41:14.057Z,10.40
2017-09-18T01:43:40.986Z,10.40
2017-09-18T01:46:08.334Z,10.10
2017-09-18T01:48:35.210Z,10.10
2017-09-18T01:51:02.121Z,10.10
2017-09-18T01:53:29.042Z,10.10
2017-09-18T01:55:56.011Z,10.20
2017-09-18T01:58:22.893Z,10.20
2017-09-18T02:00:49.897Z,10.10
2017-09-18T02:03:16.846Z,10.00
2017-09-18T02:05:43.767Z,10.00
2017-09-18T02:08:10.688Z,10.00
2017-09-18T02:10:37.570Z,10.00
2017-09-18T02:13:04.538Z,10.00
2017-09-18T02:15:31.857Z,10.00
2017-09-18T02:17:58.832Z,10.00
2017-09-18T02:20:25.714Z,10.10
2017-09-18T02:22:52.727Z,10.10
2017-09-18T02:25:19.602Z,10.10
2017-09-18T02:27:46.518Z,10.10
2017-09-18T02:30:13.438Z,10.10
2017-09-18T02:32:40.319Z,10.10
2017-09-18T02:35:07.658Z,10.10
2017-09-18T02:37:34.611Z,10.10
2017-09-18T02:40:01.553Z,10.00
2017-09-18T02:42:28.510Z,10.00
2017-09-18T02:44:55.853Z,10.20
2017-09-18T02:47:22.742Z,10.20
2017-09-18T02:49:49.631Z,10.20
2017-09-18T02:52:16.638Z,10.10
2017-09-18T02:54:43.525Z,10.20
2017-09-18T02:57:10.493Z,10.10
2017-09-18T02:59:37.418Z,10.10
2017-09-18T03:02:04.384Z,10.20
2017-09-18T03:04:31.274Z,10.30
2017-09-18T03:06:58.234Z,10.30
2017-09-18T03:09:25.130Z,10.20
2017-09-18T03:11:52.599Z,10.10
2017-09-18T03:14:19.631Z,10.10
2017-09-18T03:16:46.573Z,10.00
2017-09-18T03:19:13.463Z,9.90
2017-09-18T03:21:40.384Z,9.80
2017-09-18T03:24:07.282Z,9.80
2017-09-18T03:26:34.250Z,9.90
2017-09-18T03:29:01.172Z,10.00
2017-09-18T03:31:28.115Z,10.10
2017-09-18T03:33:55.007Z,10.20
2017-09-18T03:36:22.350Z,9.90
2017-09-18T03:38:49.241Z,10.00
2017-09-18T03:41:16.473Z,9.90
2017-09-18T03:43:43.387Z,9.80
2017-09-18T03:46:10.265Z,9.80
2017-09-18T03:48:37.178Z,9.70
2017-09-18T03:51:04.125Z,9.40
2017-09-18T03:53:31.022Z,9.40
2017-09-18T03:55:57.933Z,9.40
2017-09-18T03:58:25.269Z,9.10
2017-09-18T04:00:52.162Z,9.10
2017-09-18T04:03:19.057Z,9.10
2017-09-18T04:05:46.017Z,9.10
2017-09-18T04:08:12.894Z,9.10
2017-09-18T04:10:39.773Z,9.20
2017-09-18T04:13:06.741Z,9.40
2017-09-18T04:15:33.622Z,9.50
2017-09-18T04:18:00.511Z,9.60
2017-09-18T04:20:27.487Z,9.70
2017-09-18T04:22:54.441Z,9.80
2017-09-18T04:25:21.786Z,9.80
2017-09-18T04:27:48.703Z,9.80
2017-09-18T04:30:15.683Z,9.90
2017-09-18T04:32:43.029Z,9.80
2017-09-18T04:35:09.955Z,9.80
2017-09-18T04:37:36.837Z,9.80
2017-09-18T04:40:03.918Z,9.70
2017-09-18T04:42:30.894Z,9.70
2017-09-18T04:44:57.826Z,9.60
2017-09-18T04:47:24.734Z,9.50
2017-09-18T04:49:51.662Z,9.40
2017-09-18T04:52:18.542Z,9.20
2017-09-18T04:54:45.421Z,9.20
2017-09-18T04:57:12.361Z,9.20
2017-09-18T04:59:39.322Z,9.40
2017-09-18T05:02:06.198Z,9.50
2017-09-18T05:04:33.189Z,9.70
2017-09-18T05:07:00.078Z,9.80
2017-09-18T05:09:26.998Z,9.80
2017-09-18T05:11:53.987Z,10.00
2017-09-18T05:14:20.866Z,10.00
2017-09-18T05:16:47.749Z,10.10
2017-09-18T05:19:15.079Z,10.20
2017-09-18T05:21:42.037Z,10.20
2017-09-18T05:24:09.390Z,10.30
2017-09-18T05:26:36.714Z,10.40
2017-09-18T05:29:03.690Z,10.40
2017-09-18T05:31:30.644Z,10.30
2017-09-18T05:33:57.581Z,10.40
2017-09-18T05:36:24.461Z,10.40
2017-09-18T05:38:51.375Z,10.50
2017-09-18T05:41:18.293Z,10.50
2017-09-18T05:43:45.311Z,10.70
2017-09-18T05:46:12.186Z,10.70
2017-09-18T05:48:39.110Z,10.60
2017-09-18T05:51:06.125Z,10.70
2017-09-18T05:53:33.457Z,10.40
2017-09-18T05:56:00.389Z,10.40
2017-09-18T05:58:27.358Z,10.30
2017-09-18T06:00:54.345Z,10.40
2017-09-18T06:03:21.253Z,10.40
2017-09-18T06:05:48.606Z,10.60
2017-09-18T06:08:15.493Z,10.60
2017-09-18T06:10:42.521Z,10.70
2017-09-18T06:13:09.797Z,10.80
2017-09-18T06:15:36.682Z,10.80
2017-09-18T06:18:03.641Z,10.80
2017-09-18T06:20:30.585Z,10.90
2017-09-18T06:22:57.470Z,11.00
2017-09-18T06:25:24.397Z,11.00
2017-09-18T06:27:51.665Z,11.20
2017-09-18T06:30:18.545Z,11.20
2017-09-18T06:32:45.469Z,11.40
2017-09-18T06:35:12.345Z,11.60
2017-09-18T06:37:39.221Z,11.50
2017-09-18T06:40:06.157Z,11.50
2017-09-18T06:42:33.040Z,11.50
2017-09-18T06:44:59.955Z,11.60
2017-09-18T06:47:26.877Z,11.60
2017-09-18T06:49:53.845Z,11.70
2017-09-18T06:52:20.794Z,11.80
2017-09-18T06:54:47.882Z,11.80
2017-09-18T06:57:14.754Z,11.90
2017-09-18T06:59:41.725Z,11.80
2017-09-18T07:02:08.639Z,11.70
2017-09-18T07:04:35.668Z,11.70
2017-09-18T07:07:02.550Z,11.80
2017-09-18T07:09:29.560Z,11.80
2017-09-18T07:11:56.444Z,12.00
2017-09-18T07:14:23.320Z,12.10
2017-09-18T07:16:50.662Z,12.30
2017-09-18T07:19:17.604Z,12.30
2017-09-18T07:21:44.485Z,12.30
2017-09-18T07:24:11.403Z,12.00
2017-09-18T07:26:38.356Z,11.80
2017-09-18T07:29:05.240Z,11.70
2017-09-18T07:31:32.233Z,11.80
2017-09-18T07:33:59.224Z,12.00
2017-09-18T07:36:26.101Z,12.10
2017-09-18T07:38:53.101Z,12.40
2017-09-18T07:41:20.432Z,12.80
2017-09-18T07:43:47.390Z,12.80
2017-09-18T07:46:14.737Z,13.20
2017-09-18T07:48:41.681Z,13.20
2017-09-18T07:51:08.624Z,13.30
2017-09-18T07:53:35.578Z,13.40
2017-09-18T07:56:02.517Z,13.50
2017-09-18T07:58:29.473Z,13.50
2017-09-18T08:00:56.399Z,13.60
2017-09-18T08:03:23.277Z,13.70
2017-09-18T08:05:50.586Z,13.70
2017-09-18T08:08:17.558Z,13.80
2017-09-18T08:10:44.505Z,13.80
2017-09-18T08:13:11.385Z,13.70
2017-09-18T08:15:38.301Z,13.60
2017-09-18T08:18:05.187Z,13.50
2017-09-18T08:20:32.086Z,13.50
2017-09-18T08:22:58.997Z,13.20
2017-09-18T08:25:25.977Z,13.10
2017-09-18T08:27:52.872Z,13.00
2017-09-18T08:30:19.781Z,13.10
2017-09-18T08:32:47.125Z,13.50
2017-09-18T08:35:14.017Z,13.50
2017-09-18T08:37:40.939Z,13.80
2017-09-18T08:40:08.223Z,13.90
2017-09-18T08:42:35.113Z,13.90
2017-09-18T08:45:02.058Z,13.60
2017-09-18T08:47:29.010Z,13.60
2017-09-18T08:49:55.958Z,13.80
2017-09-18T08:52:22.875Z,14.10
2017-09-18T08:54:49.837Z,14.30
2017-09-18T08:57:16.732Z,14.40
2017-09-18T08:59:43.737Z,14.50
2017-09-18T09:02:10.613Z,14.60
2017-09-18T09:04:37.941Z,14.90
2017-09-18T09:07:04.933Z,14.90
2017-09-18T09:09:31.813Z,14.90
2017-09-18T09:11:58.734Z,15.00
2017-09-18T09:14:25.614Z,15.00
2017-09-18T09:16:52.614Z,15.00
2017-09-18T09:19:19.534Z,14.40
2017-09-18T09:21:46.877Z,13.90
2017-09-18T09:24:13.830Z,13.90
2017-09-18T09:26:41.170Z,13.90
2017-09-18T09:29:08.045Z,13.90
2017-09-18T09:31:34.970Z,13.90
2017-09-18T09:34:01.889Z,13.50
2017-09-18T09:36:28.854Z,13.60
2017-09-18T09:38:55.802Z,13.90
2017-09-18T09:41:22.718Z,14.30
2017-09-18T09:43:49.620Z,14.70
2017-09-18T09:46:16.993Z,15.40
2017-09-18T09:48:44.002Z,15.40
2017-09-18T09:51:11.351Z,15.80
2017-09-18T09:53:38.309Z,15.80
2017-09-18T09:56:05.234Z,16.00
2017-09-18T09:58:32.193Z,15.90
2017-09-18T10:00:59.142Z,15.50
2017-09-18T10:03:26.133Z,15.20
2017-09-18T10:05:53.034Z,15.30
2017-09-18T10:08:19.978Z,15.40
2017-09-18T10:10:46.897Z,15.20
2017-09-18T10:13:13.816Z,15.10
2017-09-18T10:15:40.718Z,14.90
2017-09-18T10:18:07.666Z,14.40
2017-09-18T10:20:34.610Z,14.40
2017-09-18T10:23:01.558Z,14.60
2017-09-18T10:25:28.480Z,14.80
2017-09-18T10:27:55.473Z,15.10
2017-09-18T10:30:22.747Z,15.70
2017-09-18T10:32:49.746Z,15.70
2017-09-18T10:35:16.630Z,15.80
2017-09-18T10:37:43.542Z,16.10
2017-09-18T10:40:10.485Z,16.30
2017-09-18T10:42:37.369Z,16.50
2017-09-18T10:45:04.247Z,16.80
2017-09-18T10:47:31.222Z,17.10
2017-09-18T10:49:58.166Z,17.40
2017-09-18T10:52:25.049Z,17.50
2017-09-18T10:54:52.396Z,17.30
2017-09-18T10:57:19.897Z,16.20
2017-09-18T10:59:46.783Z,16.20
2017-09-18T11:02:13.722Z,15.50
2017-09-18T11:04:40.597Z,15.60
2017-09-18T11:07:07.509Z,15.70
2017-09-18T11:09:34.457Z,16.00
2017-09-18T11:12:01.406Z,16.10
2017-09-18T11:14:28.354Z,16.20
2017-09-18T11:16:55.298Z,16.40
2017-09-18T11:19:22.242Z,16.70
2017-09-18T11:21:49.121Z,17.00
2017-09-18T11:24:16.129Z,16.30
2017-09-18T11:26:43.078Z,16.40
2017-09-18T11:29:09.957Z,16.40
2017-09-18T11:31:36.869Z,16.30
2017-09-18T11:34:03.818Z,16.40
2017-09-18T11:36:30.703Z,16.80
2017-09-18T11:38:57.753Z,17.30
2017-09-18T11:41:24.633Z,17.70
2017-09-18T11:43:51.601Z,17.90
2017-09-18T11:46:18.545Z,18.10
2017-09-18T11:48:45.429Z,17.20
2017-09-18T11:51:12.358Z,16.50
2017-09-18T11:53:39.281Z,16.50
2017-09-18T11:56:06.228Z,16.30
2017-09-18T11:58:33.106Z,16.60
2017-09-18T12:01:00.019Z,16.90
2017-09-18T12:03:26.969Z,17.00
2017-09-18T12:05:53.922Z,16.70
2017-09-18T12:08:20.861Z,16.60
2017-09-18T12:10:47.809Z,16.60
2017-09-18T12:13:14.684Z,17.00
2017-09-18T12:15:41.597Z,17.30
2017-09-18T12:18:08.553Z,17.00
2017-09-18T12:20:35.439Z,16.70
2017-09-18T12:23:02.354Z,16.50
2017-09-18T12:25:29.672Z,16.00
2017-09-18T12:27:56.562Z,16.00
2017-09-18T12:30:23.830Z,16.10
2017-09-18T12:32:50.745Z,16.10
2017-09-18T12:35:17.782Z,16.00
2017-09-18T12:37:44.733Z,16.40
2017-09-18T12:40:11.692Z,17.00
2017-09-18T12:42:39.034Z,17.70
2017-09-18T12:45:05.978Z,17.70
2017-09-18T12:47:32.893Z,17.80
2017-09-18T12:49:59.882Z,17.90
2017-09-18T12:52:26.817Z,18.00
2017-09-18T12:54:53.766Z,18.20
2017-09-18T12:57:20.653Z,18.20
2017-09-18T12:59:47.683Z,17.90
2017-09-18T13:02:15.014Z,17.20
2017-09-18T13:04:41.956Z,17.20
2017-09-18T13:07:08.914Z,17.30
2017-09-18T13:09:35.898Z,17.60
2017-09-18T13:12:02.794Z,17.50
2017-09-18T13:14:29.669Z,17.10
2017-09-18T13:16:56.997Z,17.10
2017-09-18T13:19:23.941Z,17.10
2017-09-18T13:21:50.894Z,17.40
2017-09-18T13:24:17.808Z,17.40
2017-09-18T13:26:44.781Z,17.00
2017-09-18T13:29:11.726Z,16.80
2017-09-18T13:31:38.701Z,16.70
2017-09-18T13:34:06.033Z,17.20
2017-09-18T13:36:32.989Z,17.20
2017-09-18T13:38:59.926Z,17.50
2017-09-18T13:41:26.869Z,17.90
2017-09-18T13:43:53.786Z,18.20
2017-09-18T13:46:20.717Z,18.40
2017-09-18T13:48:47.609Z,18.20
2017-09-18T13:51:14.498Z,17.80
2017-09-18T13:53:41.499Z,18.00
2017-09-18T13:56:08.382Z,18.30
2017-09-18T13:58:35.266Z,17.90
2017-09-18T14:01:02.238Z,17.40
2017-09-18T14:03:29.120Z,17.30
2017-09-18T14:05:56.030Z,17.10
2017-09-18T14:08:22.979Z,17.00
2017-09-18T14:10:49.857Z,16.80
2017-09-18T14:13:16.798Z,17.00
2017-09-18T14:15:43.758Z,17.30
2017-09-18T14:18:10.637Z,17.50
2017-09-18T14:20:37.521Z,17.80
2017-09-18T14:23:04.838Z,18.00
2017-09-18T14:25:31.805Z,18.00
2017-09-18T14:27:58.690Z,18.40
2017-09-18T14:30:25.614Z,18.50
2017-09-18T14:32:52.885Z,18.30
2017-09-18T14:35:19.785Z,18.30
2017-09-18T14:37:46.709Z,17.80
2017-09-18T14:40:13.690Z,17.50
2017-09-18T14:42:40.569Z,17.70
2017-09-18T14:45:07.486Z,17.30
2017-09-18T14:47:34.426Z,16.70
2017-09-18T14:50:01.370Z,16.60
2017-09-18T14:52:28.314Z,16.40
2017-09-18T14:54:55.194Z,16.30
2017-09-18T14:57:22.074Z,16.30
2017-09-18T14:59:49.101Z,16.40
2017-09-18T15:02:15.998Z,16.40
2017-09-18T15:04:42.947Z,16.30
2017-09-18T15:07:09.866Z,16.40
2017-09-18T15:09:36.762Z,16.40
2017-09-18T15:12:04.034Z,16.50
2017-09-18T15:14:30.984Z,16.50
2017-09-18T15:16:57.871Z,16.70
2017-09-18T15:19:24.749Z,17.00
2017-09-18T15:21:52.065Z,16.80
2017-09-18T15:24:19.030Z,16.80
2017-09-18T15:26:45.909Z,16.70
2017-09-18T15:29:12.821Z,16.60
2017-09-18T15:31:39.701Z,16.60
2017-09-18T15:34:06.611Z,16.60
2017-09-18T15:36:33.553Z,16.50
2017-09-18T15:39:00.507Z,16.50
2017-09-18T15:41:27.389Z,16.80
2017-09-18T15:43:54.410Z,16.90
2017-09-18T15:46:21.687Z,16.70
2017-09-18T15:48:48.653Z,16.80
2017-09-18T15:51:15.573Z,16.70
2017-09-18T15:53:42.545Z,16.60
2017-09-18T15:56:09.534Z,16.50
2017-09-18T15:58:36.537Z,16.50
2017-09-18T16:01:03.481Z,16.60
2017-09-18T16:03:30.362Z,16.60
2017-09-18T16:05:57.320Z,16.70
2017-09-18T16:08:24.221Z,16.60
2017-09-18T16:10:51.102Z,16.60
2017-09-18T16:13:18.121Z,16.60
2017-09-18T16:15:45.164Z,16.70
2017-09-18T16:18:12.041Z,16.70
2017-09-18T16:20:38.953Z,16.70
2017-09-18T16:23:05.840Z,16.80
2017-09-18T16:25:32.741Z,16.90
2017-09-18T16:27:59.692Z,17.00
2017-09-18T16:30:26.593Z,16.90
2017-09-18T16:32:53.474Z,16.80
2017-09-18T16:35:20.433Z,16.60
2017-09-18T16:37:47.313Z,16.60
2017-09-18T16:40:14.262Z,16.50
2017-09-18T16:42:41.265Z,16.00
2017-09-18T16:45:08.214Z,15.20
2017-09-18T16:47:35.157Z,14.30
2017-09-18T16:50:02.075Z,13.40
2017-09-18T16:52:28.954Z,13.10
2017-09-18T16:54:55.837Z,13.00
2017-09-18T16:57:22.753Z,12.80
2017-09-18T16:59:50.031Z,13.00
2017-09-18T17:02:16.912Z,13.00
2017-09-18T17:04:43.835Z,13.10
2017-09-18T17:07:10.738Z,13.30
2017-09-18T17:09:37.625Z,13.40
2017-09-18T17:12:04.546Z,13.60
2017-09-18T17:14:31.838Z,13.80
2017-09-18T17:16:58.817Z,13.80
2017-09-18T17:19:25.814Z,13.90
2017-09-18T17:21:52.698Z,13.80
2017-09-18T17:24:19.577Z,13.70
2017-09-18T17:26:46.913Z,13.90
2017-09-18T17:29:13.866Z,13.90
2017-09-18T17:31:40.815Z,13.90
2017-09-18T17:34:08.167Z,13.90
2017-09-18T17:36:35.105Z,13.90
2017-09-18T17:39:02.022Z,13.90
2017-09-18T17:41:28.904Z,13.90
2017-09-18T17:43:55.786Z,14.00
2017-09-18T17:46:22.710Z,14.00
2017-09-18T17:48:50.034Z,14.10
2017-09-18T17:51:17.000Z,14.10
2017-09-18T17:53:43.937Z,14.20
2017-09-18T17:56:10.885Z,14.20
2017-09-18T17:58:37.838Z,14.20
2017-09-18T18:01:04.781Z,14.10
2017-09-18T18:03:31.657Z,14.10
2017-09-18T18:05:58.593Z,14.10
2017-09-18T18:08:25.925Z,14.10
2017-09-18T18:10:52.874Z,14.20
2017-09-18T18:13:19.823Z,14.20
2017-09-18T18:15:46.769Z,14.30
2017-09-18T18:18:13.657Z,14.30
2017-09-18T18:20:40.554Z,14.30
2017-09-18T18:23:07.507Z,14.40
2017-09-18T18:25:34.445Z,14.30
2017-09-18T18:28:01.332Z,14.40
2017-09-18T18:30:28.245Z,14.20
2017-09-18T18:32:55.134Z,13.90
2017-09-18T18:35:22.030Z,13.80
2017-09-18T18:37:48.992Z,13.80
2017-09-18T18:40:16.266Z,13.60
2017-09-18T18:42:43.173Z,13.60
2017-09-18T18:45:10.090Z,13.60
2017-09-18T18:47:36.974Z,13.60
2017-09-18T18:50:03.862Z,13.70
2017-09-18T18:52:30.878Z,13.80
2017-09-18T18:54:58.158Z,13.50
2017-09-18T18:57:25.050Z,13.50
2017-09-18T18:59:52.006Z,13.50
2017-09-18T19:02:18.958Z,13.50
2017-09-18T19:04:45.910Z,13.50
2017-09-18T19:07:13.274Z,13.60
2017-09-18T19:09:40.634Z,13.60
2017-09-18T19:12:07.931Z,13.60
2017-09-18T19:14:34.913Z,13.60
2017-09-18T19:17:01.806Z,13.60
2017-09-18T19:19:28.705Z,13.60
2017-09-18T19:21:55.658Z,13.60
2017-09-18T19:24:22.542Z,13.60
2017-09-18T19:26:49.433Z,13.60
2017-09-18T19:29:16.365Z,13.70
2017-09-18T19:31:43.334Z,13.60
2017-09-18T19:34:10.299Z,13.70
2017-09-18T19:36:37.630Z,13.50
2017-09-18T19:39:04.506Z,13.50
2017-09-18T19:41:31.829Z,13.40
2017-09-18T19:43:58.779Z,13.40
2017-09-18T19:46:25.743Z,13.30
2017-09-18T19:48:53.097Z,13.50
2017-09-18T19:51:20.444Z,13.40
2017-09-18T19:53:47.349Z,13.40
2017-09-18T19:56:14.266Z,13.40
2017-09-18T19:58:41.235Z,13.50
2017-09-18T20:01:08.267Z,13.50
2017-09-18T20:03:35.156Z,13.50
2017-09-18T20:06:02.121Z,13.60
2017-09-18T20:08:29.066Z,13.60
2017-09-18T20:10:55.965Z,13.60
2017-09-18T20:13:22.920Z,13.50
2017-09-18T20:15:49.902Z,13.50
2017-09-18T20:18:16.875Z,13.50
2017-09-18T20:20:44.202Z,13.40
2017-09-18T20:23:11.094Z,13.40
2017-09-18T20:25:37.990Z,13.40
2017-09-18T20:28:05.046Z,13.40
2017-09-18T20:30:31.994Z,13.40
2017-09-18T20:32:58.906Z,13.40
2017-09-18T20:35:25.817Z,13.40
2017-09-18T20:37:52.749Z,13.40
2017-09-18T20:40:20.058Z,13.40
2017-09-18T20:42:47.034Z,13.40
2017-09-18T20:45:13.913Z,13.40
2017-09-18T20:47:40.802Z,13.50
2017-09-18T20:50:07.769Z,13.40
2017-09-18T20:52:34.713Z,13.40
2017-09-18T20:55:02.445Z,13.30
2017-09-18T20:57:29.361Z,13.30
2017-09-18T20:59:56.277Z,13.30
2017-09-18T21:02:23.160Z,13.20
2017-09-18T21:04:50.166Z,13.10
2017-09-18T21:07:17.110Z,13.10
2017-09-18T21:09:44.062Z,13.00
2017-09-18T21:12:11.005Z,12.90
2017-09-18T21:14:37.894Z,12.90
2017-09-18T21:17:04.793Z,12.90
2017-09-18T21:19:31.709Z,12.90
2017-09-18T21:21:58.589Z,12.90
2017-09-18T21:24:25.466Z,12.80
2017-09-18T21:26:52.477Z,12.70
2017-09-18T21:29:19.421Z,12.60
2017-09-18T21:31:46.375Z,12.50
2017-09-18T21:34:13.318Z,12.40
2017-09-18T21:36:40.202Z,12.40
2017-09-18T21:39:07.082Z,12.40
2017-09-18T21:41:34.050Z,12.30
2017-09-18T21:44:01.003Z,12.40
2017-09-18T21:46:27.881Z,12.40
2017-09-18T21:48:54.876Z,12.40
2017-09-18T21:51:21.757Z,12.40
2017-09-18T21:53:49.095Z,12.40
2017-09-18T21:56:16.041Z,12.40
2017-09-18T21:58:42.931Z,12.40
2017-09-18T22:01:09.816Z,12.30
2017-09-18T22:03:36.746Z,12.30
2017-09-18T22:06:03.738Z,12.30
2017-09-18T22:08:31.081Z,12.20
2017-09-18T22:10:58.030Z,12.20
2017-09-18T22:13:24.917Z,12.20
2017-09-18T22:15:51.808Z,12.20
2017-09-18T22:18:18.725Z,12.20
2017-09-18T22:20:45.705Z,12.10
2017-09-18T22:23:12.903Z,12.00
2017-09-18T22:25:40.720Z,12.00
2017-09-18T22:28:07.607Z,12.00
2017-09-18T22:30:34.486Z,12.00
2017-09-18T22:33:01.466Z,12.00
2017-09-18T22:35:28.414Z,12.00
2017-09-18T22:37:55.297Z,11.90
2017-09-18T22:40:22.210Z,11.90
2017-09-18T22:42:49.489Z,11.90
2017-09-18T22:45:16.370Z,11.90
2017-09-18T22:47:43.341Z,11.80
2017-09-18T22:50:10.221Z,11.80
2017-09-18T22:52:37.498Z,11.70
2017-09-18T22:55:04.489Z,11.70
2017-09-18T22:57:31.445Z,11.70
2017-09-18T22:59:58.390Z,11.70
2017-09-18T23:02:25.306Z,11.60
2017-09-18T23:04:52.274Z,11.60
2017-09-18T23:07:19.226Z,11.70
2017-09-18T23:09:46.174Z,11.80
2017-09-18T23:12:13.051Z,11.70
2017-09-18T23:14:39.982Z,11.70
2017-09-18T23:17:07.321Z,11.90
2017-09-18T23:19:34.278Z,11.90
2017-09-18T23:22:01.211Z,11.70
2017-09-18T23:24:28.161Z,11.60
2017-09-18T23:26:55.101Z,11.70
2017-09-18T23:29:22.055Z,11.80
2017-09-18T23:31:48.969Z,11.80
2017-09-18T23:34:15.937Z,11.80
2017-09-18T23:36:42.895Z,11.80
2017-09-18T23:39:09.805Z,11.80
2017-09-18T23:41:36.793Z,11.80
2017-09-18T23:44:04.083Z,11.80
2017-09-18T23:46:31.086Z,11.80
2017-09-18T23:48:57.973Z,11.90
2017-09-18T23:51:24.868Z,12.00
2017-09-18T23:53:51.790Z,12.00
2017-09-18T23:56:18.669Z,12.00
2017-09-18T23:58:45.618Z,12.00
